Time;durP1;ratioP1;P1;durP2;ratioP2;P2;SDS_P1;SDS_P2;PMS_P1;PMS_P2;Temp;Humidity;BMP_temperature;BMP_pressure;BME280_temperature;BME280_humidity;BME280_pressure;Samples;Min_cycle;Max_cycle;Signal;HPM_P1;HPM_P2
2022/09/11 00:01:18;;;;;;;6.40;2.10;;;;;;;13.54;86.69;95311.96;1726513;83;21015;-66
2022/09/11 00:03:46;;;;;;;2.95;1.90;;;;;;;13.54;87.02;95311.10;1726020;83;21019;-67
2022/09/11 00:06:17;;;;;;;3.65;1.92;;;;;;;13.48;86.74;95309.53;1726369;83;21036;-66
2022/09/11 00:08:44;;;;;;;6.95;3.27;;;;;;;13.42;86.36;95315.89;1726420;83;21011;-66
2022/09/11 00:11:17;;;;;;;3.45;2.35;;;;;;;13.38;86.85;95316.04;1726418;83;21050;-66
2022/09/11 00:13:48;;;;;;;4.97;2.35;;;;;;;13.33;86.79;95314.00;1726427;83;21552;-66
2022/09/11 00:16:24;;;;;;;3.85;2.70;;;;;;;13.28;86.87;95311.97;1726458;83;20983;-66
2022/09/11 00:18:50;;;;;;;5.10;2.75;;;;;;;13.21;86.98;95310.83;1726213;83;21066;-66
2022/09/11 00:21:17;;;;;;;5.10;2.40;;;;;;;13.26;87.25;95315.98;1726663;83;21027;-65
2022/09/11 00:23:44;;;;;;;8.90;3.08;;;;;;;13.27;87.13;95316.41;1726268;83;21059;-66
2022/09/11 00:26:11;;;;;;;6.50;2.22;;;;;;;13.32;87.28;95317.12;1726446;83;21071;-66
2022/09/11 00:28:38;;;;;;;4.37;2.45;;;;;;;13.39;87.00;95318.65;1726499;83;21500;-65
2022/09/11 00:31:21;;;;;;;6.42;2.50;;;;;;;13.34;86.85;95313.97;1726412;83;21050;-66
2022/09/11 00:33:49;;;;;;;8.28;2.47;;;;;;;13.34;86.85;95313.97;1726354;83;20992;-67
2022/09/11 00:36:20;;;;;;;5.10;3.10;;;;;;;13.20;86.30;95316.17;1726293;83;21146;-66
2022/09/11 00:38:49;;;;;;;9.93;3.20;;;;;;;12.98;87.97;95310.27;1724955;83;21059;-66
2022/09/11 00:41:23;;;;;;;4.58;2.72;;;;;;;12.98;87.97;95310.27;1726464;83;21051;-66
2022/09/11 00:43:58;;;;;;;4.47;2.85;;;;;;;12.96;87.62;95320.50;1726597;83;21027;-66
2022/09/11 00:46:39;;;;;;;4.00;2.92;;;;;;;12.84;86.90;95318.24;1726149;83;21031;-66
2022/09/11 00:49:14;;;;;;;7.33;3.22;;;;;;;12.71;87.81;95315.13;1726376;83;21536;-66
2022/09/11 00:51:46;;;;;;;6.85;3.12;;;;;;;12.71;87.81;95315.13;1726005;83;21138;-69
2022/09/11 00:54:18;;;;;;;4.78;3.55;;;;;;;12.67;88.44;95310.83;1726504;83;21004;-66
2022/09/11 00:56:46;;;;;;;4.53;3.35;;;;;;;12.71;88.19;95313.80;1726584;83;21031;-65
2022/09/11 00:59:14;;;;;;;6.72;3.15;;;;;;;12.71;88.19;95313.80;1726296;83;21505;-65
2022/09/11 01:01:41;;;;;;;4.17;2.87;;;;;;;12.69;88.84;95316.95;1726339;83;21019;-65
2022/09/11 01:04:09;;;;;;;7.10;4.70;;;;;;;12.67;88.68;95313.47;1726296;83;21488;-66
2022/09/11 01:06:36;;;;;;;14.70;8.10;;;;;;;12.63;88.57;95303.91;1699564;83;21027;-65
2022/09/11 01:09:03;;;;;;;19.70;9.20;;;;;;;12.55;88.73;95306.80;1726458;83;21015;-65
2022/09/11 01:11:44;;;;;;;16.82;7.37;;;;;;;12.55;88.73;95306.80;1726218;83;21031;-66
2022/09/11 01:14:34;;;;;;;9.73;5.17;;;;;;;12.53;89.20;95298.03;1699266;83;20999;-66
2022/09/11 01:17:33;;;;;;;10.00;4.28;;;;;;;12.47;89.83;95280.58;1726438;83;21039;-66
2022/09/11 01:20:15;;;;;;;12.95;3.47;;;;;;;12.59;89.28;95299.62;1726066;83;21042;-66
2022/09/11 01:23:16;;;;;;;5.35;2.70;;;;;;;12.59;88.82;95287.70;1725730;83;21019;-66
2022/09/11 01:26:05;;;;;;;6.80;2.87;;;;;;;12.59;88.82;95287.70;1726406;83;21079;-66
2022/09/11 01:28:46;;;;;;;8.43;2.60;;;;;;;12.54;88.50;95294.00;1726224;83;21035;-66
2022/09/11 01:31:16;;;;;;;5.40;2.77;;;;;;;12.50;88.46;95294.17;1725751;83;21090;-66
2022/09/11 01:33:48;;;;;;;5.75;2.35;;;;;;;12.43;88.38;95289.51;1726216;83;21039;-66
2022/09/11 01:36:23;;;;;;;3.52;2.87;;;;;;;12.37;88.65;95288.82;1726260;83;21067;-65
2022/09/11 01:39:01;;;;;;;4.95;2.47;;;;;;;12.39;88.50;95280.39;1726115;83;21541;-65
2022/09/11 01:41:53;;;;;;;7.40;3.40;;;;;;;12.39;88.50;95280.39;1726056;83;22281;-65
2022/09/11 01:44:26;;;;;;;7.33;3.55;;;;;;;12.37;88.12;95282.20;1726462;83;21478;-65
2022/09/11 01:46:54;;;;;;;11.00;3.37;;;;;;;12.41;88.73;95283.86;1726189;83;21027;-65
2022/09/11 01:49:37;;;;;;;7.45;3.30;;;;;;;12.45;89.33;95281.08;1726007;83;21552;-67
2022/09/11 01:52:14;;;;;;;6.20;3.50;;;;;;;12.47;88.92;95279.25;1722836;83;21024;-66
2022/09/11 01:54:50;;;;;;;4.70;3.17;;;;;;;12.49;88.88;95276.08;1713291;83;20992;-65
2022/09/11 01:57:24;;;;;;;4.55;3.22;;;;;;;12.51;88.63;95283.52;1713507;83;21341;-66
2022/09/11 01:59:59;;;;;;;6.35;2.72;;;;;;;12.46;88.09;95271.35;1712860;84;21004;-66
2022/09/11 02:02:37;;;;;;;3.83;3.37;;;;;;;12.42;88.38;95281.14;1713311;83;21008;-66
2022/09/11 02:05:21;;;;;;;6.75;3.52;;;;;;;12.39;88.68;95285.67;1713261;84;21470;-66
2022/09/11 02:07:54;;;;;;;3.05;2.60;;;;;;;12.44;88.76;95275.36;1713334;83;20976;-66
2022/09/11 02:10:29;;;;;;;3.33;2.55;;;;;;;12.42;88.14;95271.88;1713111;84;21031;-66
2022/09/11 02:13:24;;;;;;;4.58;3.20;;;;;;;12.34;88.12;95273.44;1712330;84;21047;-66
2022/09/11 02:15:56;;;;;;;4.65;3.10;;;;;;;12.33;88.83;95272.19;1713271;84;21020;-65
2022/09/11 02:18:31;;;;;;;4.17;3.15;;;;;;;12.48;88.64;95257.62;1713389;83;21481;-65
2022/09/11 02:20:57;;;;;;;4.50;3.02;;;;;;;12.48;88.64;95257.62;1712464;84;21068;-65
2022/09/11 02:23:24;;;;;;;4.33;2.95;;;;;;;12.62;88.99;95267.29;1713279;83;21023;-65
2022/09/11 02:25:52;;;;;;;3.35;2.75;;;;;;;12.67;88.41;95257.42;1713550;83;20996;-65
2022/09/11 02:28:18;;;;;;;5.17;2.77;;;;;;;12.69;87.59;95246.33;1713390;83;20984;-65
2022/09/11 02:30:45;;;;;;;5.15;2.80;;;;;;;12.75;87.96;95247.91;1713345;84;21462;-66
2022/09/11 02:33:31;;;;;;;4.67;3.30;;;;;;;12.75;87.96;95247.91;1713407;83;21035;-66
2022/09/11 02:36:03;;;;;;;2.22;1.85;;;;;;;12.68;87.53;95250.38;1713330;83;21027;-66
2022/09/11 02:38:38;;;;;;;3.87;3.10;;;;;;;12.56;86.95;95249.83;1705165;84;21011;-66
2022/09/11 02:41:17;;;;;;;4.00;2.42;;;;;;;12.42;87.65;95248.53;1712675;84;21139;-66
2022/09/11 02:44:12;;;;;;;2.37;2.12;;;;;;;12.39;88.47;95246.85;1713162;84;21051;-66
2022/09/11 02:47:04;;;;;;;2.30;2.10;;;;;;;12.37;87.96;95246.02;1713043;84;21103;-66
2022/09/11 02:50:21;;;;;;;2.50;1.90;;;;;;;12.30;88.97;95241.86;1713100;84;21046;-66
2022/09/11 02:53:10;;;;;;;1.40;1.30;;;;;;;12.36;88.55;95244.30;1707228;83;21570;-66
2022/09/11 02:55:50;;;;;;;4.00;1.90;;;;;;;12.40;88.08;95236.70;1705609;84;21028;-65
2022/09/11 02:58:30;;;;;;;1.55;1.32;;;;;;;12.40;88.08;95236.70;1664586;84;21000;-65
2022/09/11 03:01:01;;;;;;;1.75;1.55;;;;;;;12.43;88.46;95235.27;1705593;83;21158;-65
2022/09/11 03:03:39;;;;;;;1.80;1.70;;;;;;;12.40;87.80;95230.08;1705628;84;20999;-65
2022/09/11 03:06:16;;;;;;;1.82;1.72;;;;;;;12.42;88.47;95241.45;1705441;84;21004;-65
2022/09/11 03:08:43;;;;;;;1.72;1.47;;;;;;;12.49;88.45;95235.06;1705516;84;21060;-65
2022/09/11 03:11:14;;;;;;;2.90;1.47;;;;;;;12.50;88.03;95242.10;1705600;83;21490;-66
2022/09/11 03:13:39;;;;;;;2.00;1.80;;;;;;;12.53;88.02;95235.38;1705338;83;21028;-66
2022/09/11 03:16:08;;;;;;;1.60;1.50;;;;;;;12.56;87.31;95239.71;1705310;84;21040;-66
2022/09/11 03:18:34;;;;;;;3.52;1.60;;;;;;;12.56;87.31;95239.71;1705522;83;21491;-66
2022/09/11 03:21:02;;;;;;;2.12;1.50;;;;;;;12.55;87.73;95235.34;1705100;84;21028;-66
2022/09/11 03:23:30;;;;;;;1.82;1.72;;;;;;;12.49;86.45;95236.38;1705389;83;21032;-66
2022/09/11 03:25:57;;;;;;;1.70;1.60;;;;;;;12.39;86.81;95242.02;1705543;84;21048;-66
2022/09/11 03:28:24;;;;;;;1.75;1.65;;;;;;;12.34;86.36;95240.38;1705196;84;21004;-66
2022/09/11 03:30:56;;;;;;;1.85;1.60;;;;;;;12.21;87.12;95237.70;1705512;83;21028;-66
2022/09/11 03:33:20;;;;;;;1.40;1.30;;;;;;;12.21;87.87;95246.11;1704886;84;21064;-66
2022/09/11 03:35:46;;;;;;;2.22;1.42;;;;;;;12.13;87.33;95249.84;1705508;83;21020;-65
2022/09/11 03:38:14;;;;;;;2.77;1.32;;;;;;;12.06;87.32;95244.32;1705250;83;21024;-65
2022/09/11 03:40:43;;;;;;;1.30;1.20;;;;;;;12.08;87.48;95245.61;1705417;83;21514;-65
2022/09/11 03:43:11;;;;;;;1.90;1.80;;;;;;;12.06;87.04;95250.94;1705550;84;21526;-65
2022/09/11 03:45:38;;;;;;;2.02;1.82;;;;;;;12.04;87.42;95259.36;1705470;84;21044;-65
2022/09/11 03:48:05;;;;;;;1.65;1.55;;;;;;;12.02;87.00;95258.56;1705149;84;21040;-66
2022/09/11 03:50:32;;;;;;;1.90;1.80;;;;;;;11.99;87.14;95263.92;1705625;83;21497;-66
2022/09/11 03:52:59;;;;;;;1.60;1.50;;;;;;;11.94;87.11;95266.30;1705535;83;21034;-66
2022/09/11 03:55:27;;;;;;;4.47;1.80;;;;;;;11.86;87.13;95264.73;1705452;83;21016;-66
2022/09/11 03:57:54;;;;;;;3.05;1.98;;;;;;;11.77;87.09;95269.38;1705679;84;21505;-66
2022/09/11 04:00:22;;;;;;;2.12;1.70;;;;;;;11.65;87.59;95264.87;1706003;83;20984;-66
2022/09/11 04:02:49;;;;;;;4.05;1.67;;;;;;;11.58;86.95;95268.59;1705562;84;21470;-66
2022/09/11 04:05:18;;;;;;;2.17;1.30;;;;;;;11.49;86.60;95268.86;1703477;84;21523;-66
2022/09/11 04:07:45;;;;;;;1.87;1.62;;;;;;;11.41;86.44;95262.89;1705242;83;21060;-66
2022/09/11 04:10:12;;;;;;;4.95;1.50;;;;;;;11.32;86.78;95264.48;1705410;84;21485;-65
2022/09/11 04:12:38;;;;;;;8.43;1.60;;;;;;;11.28;86.96;95270.28;1705332;84;21040;-66
2022/09/11 04:15:07;;;;;;;4.55;1.70;;;;;;;11.32;87.66;95275.91;1705722;83;20984;-65
2022/09/11 04:17:34;;;;;;;5.60;1.70;;;;;;;11.31;87.50;95273.30;1705530;84;21494;-65
2022/09/11 04:20:01;;;;;;;7.40;2.08;;;;;;;11.27;87.65;95268.56;1705785;83;21028;-65
2022/09/11 04:22:29;;;;;;;1.72;1.62;;;;;;;11.25;87.97;95264.62;1705142;84;21044;-65
2022/09/11 04:24:56;;;;;;;4.00;1.87;;;;;;;11.22;87.78;95267.36;1705560;84;21036;-65
2022/09/11 04:27:23;;;;;;;3.33;1.60;;;;;;;11.25;88.43;95271.69;1705552;83;21027;-65
2022/09/11 04:29:50;;;;;;;5.40;2.08;;;;;;;11.30;88.94;95265.83;1705477;83;20996;-66
2022/09/11 04:32:17;;;;;;;2.22;1.60;;;;;;;11.29;88.90;95260.15;1705426;84;21050;-66
2022/09/11 04:34:44;;;;;;;1.75;1.65;;;;;;;11.23;88.12;95259.84;1705319;84;21012;-66
2022/09/11 04:37:11;;;;;;;2.25;2.05;;;;;;;11.20;88.74;95257.28;1705139;84;21031;-66
2022/09/11 04:39:38;;;;;;;3.12;2.37;;;;;;;11.24;88.90;95268.19;1705529;84;21454;-66
2022/09/11 04:42:06;;;;;;;5.40;3.40;;;;;;;11.34;89.25;95266.61;1705530;84;21139;-66
2022/09/11 04:44:33;;;;;;;6.20;3.47;;;;;;;11.36;89.91;95262.16;1705302;84;21024;-66
2022/09/11 04:47:00;;;;;;;7.05;3.72;;;;;;;11.45;89.85;95257.48;1685065;84;21576;-66
2022/09/11 04:49:27;;;;;;;5.33;2.80;;;;;;;11.52;89.89;95262.63;1705589;84;21024;-66
2022/09/11 04:51:54;;;;;;;7.97;2.60;;;;;;;11.64;90.02;95257.86;1704790;84;21518;-66
2022/09/11 04:54:22;;;;;;;2.30;2.10;;;;;;;11.74;89.93;95257.12;1705508;83;21513;-65
2022/09/11 04:56:50;;;;;;;1.95;1.85;;;;;;;11.82;89.77;95249.86;1705286;84;21036;-65
2022/09/11 04:59:21;;;;;;;2.92;2.50;;;;;;;11.94;89.96;95249.11;1705286;83;21095;-65
2022/09/11 05:01:53;;;;;;;3.70;2.33;;;;;;;12.07;90.12;95246.08;1704630;84;21517;-65
2022/09/11 05:04:21;;;;;;;4.70;2.52;;;;;;;12.21;89.83;95249.61;1705054;83;21521;-66
2022/09/11 05:06:48;;;;;;;2.25;2.05;;;;;;;12.32;89.78;95246.63;1705283;84;21052;-66
2022/09/11 05:09:17;;;;;;;2.83;2.40;;;;;;;12.49;89.85;95238.17;1705620;83;21492;-65
2022/09/11 05:11:45;;;;;;;3.67;2.12;;;;;;;12.49;89.85;95238.17;1705379;84;21506;-66
2022/09/11 05:14:12;;;;;;;3.25;2.35;;;;;;;12.67;89.69;95245.98;1705562;84;21000;-66
2022/09/11 05:16:40;;;;;;;3.50;1.95;;;;;;;12.75;89.45;95244.83;1705577;84;20980;-66
2022/09/11 05:19:08;;;;;;;4.72;2.10;;;;;;;12.89;89.54;95244.36;1705349;84;21114;-67
2022/09/11 05:21:35;;;;;;;2.47;1.60;;;;;;;13.02;89.45;95236.86;1705311;84;21008;-67
2022/09/11 05:24:03;;;;;;;2.22;1.62;;;;;;;13.15;88.97;95242.61;1705328;83;21044;-66
2022/09/11 05:26:35;;;;;;;2.52;1.20;;;;;;;13.22;88.50;95238.84;1705445;83;21044;-66
2022/09/11 05:29:12;;;;;;;2.95;1.50;;;;;;;13.34;84.72;95233.61;1705503;83;21008;-66
2022/09/11 05:31:46;;;;;;;5.20;1.62;;;;;;;13.56;85.92;95233.25;1704411;84;21055;-66
2022/09/11 05:34:15;;;;;;;2.15;1.75;;;;;;;13.83;86.13;95235.80;1705085;83;21462;-66
2022/09/11 05:36:42;;;;;;;3.35;1.87;;;;;;;13.83;86.13;95235.80;1705365;84;21517;-66
2022/09/11 05:39:09;;;;;;;3.30;2.00;;;;;;;13.95;86.48;95229.19;1705402;84;21092;-66
2022/09/11 05:41:36;;;;;;;3.70;1.55;;;;;;;14.08;86.75;95239.73;1705039;84;21105;-66
2022/09/11 05:44:03;;;;;;;1.87;1.30;;;;;;;14.20;86.63;95234.43;1705388;84;21016;-66
2022/09/11 05:46:30;;;;;;;2.50;1.50;;;;;;;14.26;85.83;95238.16;1705262;84;21028;-67
2022/09/11 05:48:58;;;;;;;6.67;0.90;;;;;;;14.36;85.28;95242.65;1685415;84;21498;-66
2022/09/11 05:51:26;;;;;;;1.20;1.02;;;;;;;14.45;85.53;95244.95;1705360;83;21088;-67
2022/09/11 05:53:54;;;;;;;6.28;1.60;;;;;;;14.55;85.54;95247.68;1705153;84;21113;-67
2022/09/11 05:56:24;;;;;;;0.93;0.80;;;;;;;14.65;85.48;95240.22;1705446;84;21028;-66
2022/09/11 05:58:53;;;;;;;2.50;0.65;;;;;;;14.78;81.67;95238.78;1705551;83;21032;-67
2022/09/11 06:01:26;;;;;;;0.80;0.80;;;;;;;14.95;77.33;95246.08;1705140;84;20992;-67
2022/09/11 06:03:54;;;;;;;1.10;0.75;;;;;;;15.07;77.94;95239.40;1705239;84;21120;-67
2022/09/11 06:06:24;;;;;;;0.85;0.60;;;;;;;15.21;77.03;95237.47;1705640;83;21131;-67
2022/09/11 06:08:52;;;;;;;2.47;0.62;;;;;;;15.28;75.22;95235.81;1705490;84;21063;-67
2022/09/11 06:11:21;;;;;;;0.90;0.70;;;;;;;15.37;75.36;95233.21;1705573;84;21064;-66
2022/09/11 06:13:49;;;;;;;1.50;0.90;;;;;;;15.46;74.49;95235.95;1705590;83;21000;-66
2022/09/11 06:16:21;;;;;;;0.95;0.70;;;;;;;15.51;72.76;95226.84;1705627;84;21013;-66
2022/09/11 06:18:50;;;;;;;1.35;0.50;;;;;;;15.63;74.16;95233.42;1705608;83;21040;-66
2022/09/11 06:21:20;;;;;;;0.70;0.70;;;;;;;15.68;70.73;95222.12;1705354;83;20997;-66
2022/09/11 06:23:51;;;;;;;0.93;0.50;;;;;;;15.74;68.93;95221.86;1705024;84;21029;-66
2022/09/11 06:26:25;;;;;;;1.85;0.60;;;;;;;15.81;68.19;95216.28;1705715;83;21001;-66
2022/09/11 06:28:53;;;;;;;0.40;0.40;;;;;;;15.95;71.78;95219.16;1705479;83;21827;-67
2022/09/11 06:31:24;;;;;;;1.15;0.50;;;;;;;16.05;69.56;95208.52;1705575;84;21092;-67
2022/09/11 06:33:52;;;;;;;2.27;0.50;;;;;;;16.18;70.57;95211.48;1705564;84;21028;-71
2022/09/11 06:36:23;;;;;;;1.55;0.50;;;;;;;16.27;67.12;95207.03;1705521;83;21028;-67
2022/09/11 06:38:56;;;;;;;1.07;0.50;;;;;;;16.30;68.06;95211.34;1705586;84;21477;-67
2022/09/11 06:41:26;;;;;;;2.40;0.70;;;;;;;16.28;67.93;95212.77;1685510;84;21104;-67
2022/09/11 06:43:55;;;;;;;0.60;0.60;;;;;;;16.27;69.40;95215.02;1704947;84;21066;-67
2022/09/11 06:46:24;;;;;;;0.90;0.53;;;;;;;16.22;69.00;95223.69;1705642;83;20997;-67
2022/09/11 06:48:52;;;;;;;1.25;0.50;;;;;;;16.13;65.77;95210.83;1705714;83;21027;-66
2022/09/11 06:51:22;;;;;;;1.25;0.88;;;;;;;16.10;65.88;95213.61;1685240;84;21065;-67
2022/09/11 06:53:56;;;;;;;2.35;1.32;;;;;;;16.04;63.68;95212.57;1705664;83;21036;-66
2022/09/11 06:56:25;;;;;;;2.22;0.60;;;;;;;15.99;63.91;95208.78;1685367;84;21538;-66
2022/09/11 06:58:52;;;;;;;0.82;0.82;;;;;;;16.07;64.79;95210.62;1705512;84;21008;-66
2022/09/11 07:01:22;;;;;;;0.95;0.65;;;;;;;16.23;67.08;95208.13;1705650;84;20992;-66
2022/09/11 07:03:53;;;;;;;0.75;0.50;;;;;;;16.37;65.33;95208.32;1705161;84;20980;-67
2022/09/11 07:06:26;;;;;;;0.70;0.40;;;;;;;16.51;65.27;95209.48;1705524;83;21031;-68
2022/09/11 07:08:59;;;;;;;3.42;0.60;;;;;;;16.58;61.31;95209.55;1705570;83;21032;-66
2022/09/11 07:11:31;;;;;;;0.95;0.68;;;;;;;16.65;63.05;95205.19;1705497;84;21035;-67
2022/09/11 07:14:04;;;;;;;0.90;0.50;;;;;;;16.60;60.77;95217.88;1705339;84;21008;-67
2022/09/11 07:16:29;;;;;;;1.45;0.50;;;;;;;16.68;62.93;95215.30;1705727;83;21015;-67
2022/09/11 07:18:57;;;;;;;7.58;0.80;;;;;;;16.79;63.32;95218.36;1685129;84;21020;-67
2022/09/11 07:21:26;;;;;;;0.47;0.47;;;;;;;16.90;61.01;95217.83;1705611;84;21004;-67
2022/09/11 07:23:58;;;;;;;0.98;0.40;;;;;;;17.04;62.00;95209.54;1705307;84;21023;-67
2022/09/11 07:26:28;;;;;;;1.65;0.50;;;;;;;17.07;59.13;95217.86;1705567;83;21501;-67
2022/09/11 07:28:58;;;;;;;1.85;0.40;;;;;;;17.12;59.32;95220.30;1705280;84;21032;-66
2022/09/11 07:31:29;;;;;;;0.40;0.40;;;;;;;17.18;60.84;95226.16;1705677;83;20996;-66
2022/09/11 07:33:56;;;;;;;0.65;0.55;;;;;;;17.21;57.42;95228.70;1704985;84;21070;-66
2022/09/11 07:36:29;;;;;;;0.72;0.45;;;;;;;17.36;58.66;95220.84;1705570;83;21438;-66
2022/09/11 07:38:57;;;;;;;0.82;0.47;;;;;;;17.42;56.07;95222.73;1705487;83;21510;-66
2022/09/11 07:41:27;;;;;;;0.45;0.30;;;;;;;17.41;56.91;95224.13;1704900;84;21111;-66
2022/09/11 07:44:02;;;;;;;1.40;0.50;;;;;;;17.43;55.54;95224.92;1705649;83;21020;-66
2022/09/11 07:46:30;;;;;;;1.72;0.68;;;;;;;17.46;57.74;95224.31;1705463;83;21044;-66
2022/09/11 07:49:01;;;;;;;0.40;0.40;;;;;;;17.52;57.78;95225.31;1705445;84;21079;-67
2022/09/11 07:51:28;;;;;;;0.40;0.40;;;;;;;17.64;57.67;95218.48;1705556;84;21017;-67
2022/09/11 07:53:58;;;;;;;1.57;0.50;;;;;;;17.69;56.26;95215.11;1704895;83;21076;-67
2022/09/11 07:56:26;;;;;;;1.57;0.50;;;;;;;17.73;56.09;95215.31;1705539;84;21028;-67
2022/09/11 07:58:55;;;;;;;0.40;0.40;;;;;;;17.91;58.46;95212.65;1705521;83;21103;-67
2022/09/11 08:01:28;;;;;;;1.45;0.72;;;;;;;17.98;56.16;95215.39;1705202;83;21083;-67
2022/09/11 08:04:03;;;;;;;1.22;0.40;;;;;;;18.02;55.96;95221.44;1705535;84;21506;-67
2022/09/11 08:06:36;;;;;;;0.65;0.47;;;;;;;18.05;56.96;95224.80;1705644;83;21506;-67
2022/09/11 08:09:07;;;;;;;1.95;0.62;;;;;;;18.19;56.43;95229.85;1705405;84;21498;-66
2022/09/11 08:11:41;;;;;;;0.53;0.30;;;;;;;18.27;54.29;95244.98;1705631;84;21577;-66
2022/09/11 08:14:12;;;;;;;1.30;0.35;;;;;;;18.29;55.65;95252.44;1705325;83;21048;-66
2022/09/11 08:16:38;;;;;;;1.07;0.47;;;;;;;18.42;56.05;95245.95;1705571;83;21048;-66
2022/09/11 08:19:06;;;;;;;0.62;0.50;;;;;;;18.63;55.42;95250.60;1705645;84;21490;-66
2022/09/11 08:21:33;;;;;;;0.55;0.42;;;;;;;18.58;56.38;95247.70;1705464;84;21012;-66
2022/09/11 08:24:00;;;;;;;1.55;1.00;;;;;;;18.37;54.21;95252.91;1705194;83;21534;-66
2022/09/11 08:26:30;;;;;;;1.05;0.60;;;;;;;18.22;54.80;95254.59;1705739;83;21068;-66
2022/09/11 08:28:59;;;;;;;1.37;0.72;;;;;;;18.21;55.09;95252.00;1705362;84;21068;-67
2022/09/11 08:31:28;;;;;;;0.60;0.60;;;;;;;18.21;54.75;95251.52;1705601;84;21057;-67
2022/09/11 08:33:57;;;;;;;0.82;0.40;;;;;;;18.24;54.50;95252.69;1705590;84;21023;-67
2022/09/11 08:36:24;;;;;;;1.57;0.40;;;;;;;18.32;55.63;95256.27;1705360;83;21069;-67
2022/09/11 08:38:52;;;;;;;0.80;0.30;;;;;;;18.47;56.52;95260.80;1705425;84;21503;-67
2022/09/11 08:41:47;;;;;;;0.65;0.47;;;;;;;18.58;55.23;95265.07;1705473;84;21031;-67
2022/09/11 08:44:22;;;;;;;0.53;0.40;;;;;;;18.74;56.31;95258.87;1705194;83;21047;-67
2022/09/11 08:46:58;;;;;;;0.88;0.40;;;;;;;18.93;55.21;95254.25;1705398;84;21008;-67
2022/09/11 08:49:36;;;;;;;2.37;0.40;;;;;;;19.04;54.56;95253.63;1704196;84;21032;-66
2022/09/11 08:52:07;;;;;;;0.50;0.50;;;;;;;19.14;53.66;95259.31;1705443;83;21008;-71
2022/09/11 08:54:37;;;;;;;0.90;0.68;;;;;;;19.04;51.90;95258.98;1708238;84;21028;-66
2022/09/11 08:57:33;;;;;;;0.75;0.40;;;;;;;18.95;51.68;95276.42;1713285;84;21055;-66
2022/09/11 09:00:20;;;;;;;;;;;;;;;18.92;54.36;95272.55;1715600;84;21032;-66
2022/09/11 09:03:15;;;;;;;0.68;0.50;;;;;;;18.92;51.29;95259.67;1712998;84;20399;-67
2022/09/11 09:06:11;;;;;;;0.47;0.40;;;;;;;18.94;54.97;95262.64;1712906;84;21027;-66
2022/09/11 09:08:52;;;;;;;0.72;0.60;;;;;;;19.08;53.07;95257.86;1712610;84;21020;-66
2022/09/11 09:11:36;;;;;;;0.85;0.40;;;;;;;19.25;53.57;95259.54;1712755;84;21071;-65
2022/09/11 09:14:23;;;;;;;2.40;0.50;;;;;;;19.43;54.20;95261.16;1713449;84;21477;-67
2022/09/11 09:16:58;;;;;;;1.85;0.62;;;;;;;19.30;51.59;95256.12;1712786;84;21577;-67
2022/09/11 09:19:52;;;;;;;1.85;0.70;;;;;;;19.40;53.95;95257.34;1713332;83;21023;-66
2022/09/11 09:22:39;;;;;;;1.62;0.40;;;;;;;19.29;52.75;95261.58;1713262;83;21529;-67
2022/09/11 09:25:13;;;;;;;2.65;0.60;;;;;;;19.25;51.89;95259.54;1713092;83;20968;-67
2022/09/11 09:27:48;;;;;;;1.35;0.55;;;;;;;19.31;54.60;95254.33;1713335;83;21067;-67
2022/09/11 09:30:26;;;;;;;1.30;0.60;;;;;;;19.39;54.34;95261.43;1713444;84;21044;-67
2022/09/11 09:33:24;;;;;;;1.25;0.50;;;;;;;19.33;53.43;95261.80;1684277;84;21568;-66
2022/09/11 09:35:53;;;;;;;0.82;0.50;;;;;;;19.16;55.40;95259.61;1713468;84;21088;-66
2022/09/11 09:38:24;;;;;;;0.80;0.50;;;;;;;19.11;54.31;95263.51;1713047;83;21497;-66
2022/09/11 09:41:02;;;;;;;1.65;0.50;;;;;;;19.11;54.37;95265.70;1713360;83;21031;-66
2022/09/11 09:44:00;;;;;;;0.45;0.30;;;;;;;18.91;51.89;95257.48;1713293;83;21067;-66
2022/09/11 09:46:48;;;;;;;1.82;0.50;;;;;;;19.07;53.81;95258.80;1712930;83;21032;-66
2022/09/11 09:49:33;;;;;;;0.45;0.35;;;;;;;19.27;53.34;95264.33;1713303;84;21063;-67
2022/09/11 09:52:12;;;;;;;0.40;0.40;;;;;;;19.52;53.66;95260.23;1713296;84;21016;-67
2022/09/11 09:54:39;;;;;;;1.45;0.30;;;;;;;19.61;52.88;95267.23;1711062;83;21029;-67
2022/09/11 09:57:10;;;;;;;0.30;0.30;;;;;;;19.79;53.70;95263.11;1705418;83;21075;-67
2022/09/11 09:59:53;;;;;;;4.35;0.50;;;;;;;19.76;49.95;95265.98;1705244;83;21028;-67
2022/09/11 10:02:53;;;;;;;1.05;0.45;;;;;;;19.77;51.89;95260.52;1705668;84;21051;-67
2022/09/11 10:05:28;;;;;;;0.40;0.23;;;;;;;19.89;51.53;95259.78;1705455;84;21023;-67
2022/09/11 10:08:09;;;;;;;0.50;0.30;;;;;;;19.66;49.58;95255.78;1705216;83;21047;-67
2022/09/11 10:10:39;;;;;;;0.57;0.40;;;;;;;19.63;50.78;95268.47;1703891;84;21044;-66
2022/09/11 10:13:14;;;;;;;0.65;0.37;;;;;;;19.65;54.01;95267.91;1705339;84;20992;-67
2022/09/11 10:15:41;;;;;;;1.52;0.37;;;;;;;19.76;52.57;95260.14;1705500;83;21047;-66
2022/09/11 10:18:36;;;;;;;0.30;0.30;;;;;;;19.85;51.67;95264.92;1705536;84;21486;-66
2022/09/11 10:21:22;;;;;;;0.25;0.20;;;;;;;19.67;50.49;95268.72;1705095;84;21004;-66
2022/09/11 10:24:03;;;;;;;1.17;0.30;;;;;;;19.60;49.70;95252.11;1705580;83;21035;-66
2022/09/11 10:26:44;;;;;;;1.57;0.30;;;;;;;19.64;50.84;95250.99;1705196;83;21048;-66
2022/09/11 10:29:17;;;;;;;0.65;0.50;;;;;;;19.65;50.37;95248.72;1705381;84;21012;-67
2022/09/11 10:31:56;;;;;;;0.23;0.23;;;;;;;19.79;51.74;95243.89;1705597;83;21032;-67
2022/09/11 10:34:26;;;;;;;1.15;0.40;;;;;;;19.83;47.86;95244.10;1705276;84;21013;-68
2022/09/11 10:37:04;;;;;;;1.25;0.40;;;;;;;19.63;50.23;95256.42;1705433;84;21071;-67
2022/09/11 10:39:33;;;;;;;0.33;0.30;;;;;;;19.65;51.00;95251.84;1705427;83;21569;-67
2022/09/11 10:42:08;;;;;;;0.30;0.30;;;;;;;19.57;49.26;95250.11;1705232;83;21526;-67
2022/09/11 10:44:36;;;;;;;2.42;0.40;;;;;;;19.67;51.16;95254.84;1704536;84;21510;-66
2022/09/11 10:47:14;;;;;;;0.20;0.20;;;;;;;19.57;47.61;95257.66;1685013;84;21002;-66
2022/09/11 10:49:41;;;;;;;0.30;0.30;;;;;;;19.60;49.57;95248.09;1705370;84;21072;-66
2022/09/11 10:52:14;;;;;;;0.80;0.35;;;;;;;19.82;49.49;95258.91;1705407;84;21052;-66
2022/09/11 10:54:46;;;;;;;0.30;0.30;;;;;;;19.77;49.26;95262.34;1706897;84;21108;-66
2022/09/11 10:57:32;;;;;;;0.95;0.40;;;;;;;20.06;50.53;95252.55;1708841;84;21008;-66
2022/09/11 11:00:13;;;;;;;0.60;0.30;;;;;;;20.13;50.62;95255.69;1713505;84;21067;-66
2022/09/11 11:02:51;;;;;;;0.40;0.30;;;;;;;20.41;50.20;95256.17;1713304;83;21012;-67
2022/09/11 11:05:45;;;;;;;0.50;0.40;;;;;;;20.81;50.32;95261.72;1713374;84;21027;-67
2022/09/11 11:08:24;;;;;;;;;;;;;;;21.08;48.33;95254.56;1715544;84;21008;-67
2022/09/11 11:11:49;;;;;;;0.42;0.40;;;;;;;21.32;50.27;95254.79;1713399;83;20128;-67
2022/09/11 11:14:47;;;;;;;0.90;0.40;;;;;;;21.32;48.89;95257.47;1712765;84;21016;-67
2022/09/11 11:17:40;;;;;;;0.40;0.33;;;;;;;21.38;49.33;95261.56;1684353;84;21017;-67
2022/09/11 11:20:30;;;;;;;0.80;0.60;;;;;;;20.79;49.61;95245.75;1684351;85;21526;-67
2022/09/11 11:23:17;;;;;;;2.50;0.40;;;;;;;20.66;47.97;95257.74;1747139;81;20988;-67
2022/09/11 11:26:12;;;;;;;1.20;0.40;;;;;;;20.56;49.08;95244.52;1757618;82;21477;-67
2022/09/11 11:29:17;;;;;;;0.30;0.30;;;;;;;20.66;49.36;95248.81;1757117;82;20979;-66
2022/09/11 11:32:10;;;;;;;0.72;0.30;;;;;;;20.67;49.45;95243.85;1756960;81;21031;-66
2022/09/11 11:35:19;;;;;;;0.35;0.30;;;;;;;20.27;49.60;95241.83;1757064;81;21008;-66
2022/09/11 11:37:49;;;;;;;1.65;0.40;;;;;;;19.89;50.12;95246.88;1757040;82;21003;-66
2022/09/11 11:40:48;;;;;;;0.98;0.40;;;;;;;20.01;51.54;95237.24;1757126;82;20996;-66
2022/09/11 11:43:23;;;;;;;1.85;0.45;;;;;;;20.58;50.77;95235.90;1756545;81;21054;-66
2022/09/11 11:45:54;;;;;;;0.30;0.30;;;;;;;21.44;48.17;95237.50;1737855;82;21109;-67
2022/09/11 11:48:30;;;;;;;2.62;0.50;;;;;;;22.15;48.18;95226.34;1738193;82;20992;-67
2022/09/11 11:51:06;;;;;;;0.68;0.20;;;;;;;22.85;44.61;95231.20;1756146;81;20964;-67
2022/09/11 11:53:42;;;;;;;0.55;0.40;;;;;;;23.18;43.25;95231.06;1757005;81;21074;-67
2022/09/11 11:56:38;;;;;;;1.37;0.30;;;;;;;23.42;42.33;95218.95;1752118;81;21099;-67
2022/09/11 11:59:48;;;;;;;2.55;0.40;;;;;;;23.74;42.79;95213.00;1748841;81;21012;-67
2022/09/11 12:02:20;;;;;;;1.70;0.30;;;;;;;23.85;42.02;95220.25;1713350;84;20999;-67
2022/09/11 12:04:54;;;;;;;1.50;0.40;;;;;;;24.00;41.66;95212.81;1749652;82;21019;-67
2022/09/11 12:07:30;;;;;;;0.45;0.30;;;;;;;24.27;41.63;95210.66;1712977;84;21027;-67